Time;durP1;ratioP1;P1;durP2;ratioP2;P2;SDS_P1;SDS_P2;PMS_P1;PMS_P2;Temp;Humidity;BMP_temperature;BMP_pressure;BME280_temperature;BME280_humidity;BME280_pressure;Samples;Min_cycle;Max_cycle;Signal;HPM_P1;HPM_P2
2021/06/29 00:13:56;;;;;;;12.48;8.25;;;;;;;18.75;98.76;100288.77;714493;1175;113904;-73
2021/06/29 00:28:59;;;;;;;11.58;7.15;;;;;;;18.70;98.66;100294.66;714255;1202;114848;-72
2021/06/29 00:44:01;;;;;;;13.73;8.45;;;;;;;18.41;99.18;100291.07;714287;1199;115389;-74
2021/06/29 00:59:03;;;;;;;8.90;6.60;;;;;;;18.17;99.77;100294.03;714335;1198;114351;-72
2021/06/29 01:14:14;;;;;;;8.65;6.60;;;;;;;17.79;100.00;100281.67;713946;1200;115064;-72
2021/06/29 01:29:20;;;;;;;9.50;6.90;;;;;;;17.60;100.00;100283.02;713923;1174;115160;-74
2021/06/29 01:44:26;;;;;;;20.13;10.08;;;;;;;17.39;100.00;100287.19;714182;1199;114601;-73
2021/06/29 01:59:28;;;;;;;9.38;6.53;;;;;;;16.90;100.00;100274.35;714480;1199;114335;-72
2021/06/29 02:14:30;;;;;;;397.73;168.45;;;;;;;16.77;100.00;100261.66;714442;1199;114377;-73
2021/06/29 02:29:32;;;;;;;86.60;46.97;;;;;;;16.82;100.00;100248.70;714316;1199;115793;-75
2021/06/29 02:44:35;;;;;;;28.63;15.20;;;;;;;16.71;100.00;100257.89;714201;1200;114311;-75
2021/06/29 02:59:37;;;;;;;18.37;10.13;;;;;;;16.48;100.00;100257.86;714284;1201;115455;-71
2021/06/29 03:14:41;;;;;;;15.23;9.37;;;;;;;16.35;100.00;100247.87;714379;1199;114312;-71
2021/06/29 03:29:43;;;;;;;13.20;8.98;;;;;;;16.59;100.00;100251.37;714179;1199;114267;-71
2021/06/29 03:44:45;;;;;;;15.70;9.77;;;;;;;16.93;100.00;100243.03;714290;1199;114339;-71
2021/06/29 03:59:49;;;;;;;18.45;9.63;;;;;;;17.11;100.00;100253.30;714135;1178;114371;-70
2021/06/29 04:14:56;;;;;;;24.35;11.53;;;;;;;17.71;100.00;100247.25;714760;1176;114609;-72
2021/06/29 04:29:59;;;;;;;19.23;11.27;;;;;;;18.18;100.00;100247.90;716196;1199;114643;-71
2021/06/29 04:45:02;;;;;;;20.80;11.65;;;;;;;18.18;100.00;100261.17;715466;1199;114148;-74
2021/06/29 05:15:52;;;;;;;17.90;12.95;;;;;;;19.44;100.00;100268.75;713347;1170;115118;-73
2021/06/29 05:30:55;;;;;;;19.23;12.25;;;;;;;20.21;100.00;100260.79;712589;1203;114751;-72
2021/06/29 05:45:58;;;;;;;19.35;12.55;;;;;;;20.89;100.00;100252.77;712692;1203;114353;-73
2021/06/29 06:01:00;;;;;;;20.10;12.55;;;;;;;21.66;100.00;100260.33;712809;1203;114244;-73
2021/06/29 06:16:02;;;;;;;12.57;9.17;;;;;;;22.57;100.00;100271.89;712288;1203;115696;-74
2021/06/29 06:31:05;;;;;;;11.25;8.63;;;;;;;23.26;100.00;100255.16;712455;1203;115078;-73
2021/06/29 06:46:09;;;;;;;11.20;7.57;;;;;;;23.97;91.36;100270.95;712933;1180;114026;-82
2021/06/29 07:01:12;;;;;;;6.83;3.90;;;;;;;24.58;84.23;100261.87;714233;1207;114810;-83
2021/06/29 07:16:19;;;;;;;6.45;4.10;;;;;;;25.43;81.42;100256.42;714637;1206;115025;-82
2021/06/29 07:31:22;;;;;;;5.03;3.05;;;;;;;26.18;76.13;100260.15;714928;1203;113699;-83
2021/06/29 07:46:25;;;;;;;4.47;2.83;;;;;;;27.00;71.55;100235.76;713583;1203;115403;-79
2021/06/29 08:01:28;;;;;;;3.90;2.70;;;;;;;27.97;67.24;100246.25;713272;1205;114259;-82
2021/06/29 08:16:31;;;;;;;2.80;2.48;;;;;;;28.66;61.02;100237.53;713553;1203;114207;-81
2021/06/29 08:31:33;;;;;;;5.75;3.15;;;;;;;29.21;59.81;100219.30;712667;1191;114790;-87
2021/06/29 08:46:36;;;;;;;5.70;2.50;;;;;;;29.74;58.10;100214.99;712834;1205;114975;-82
2021/06/29 09:01:38;;;;;;;2.40;1.90;;;;;;;31.02;55.83;100223.27;712617;1205;113988;-82
2021/06/29 09:16:42;;;;;;;2.90;2.60;;;;;;;31.56;54.03;100215.56;713296;1208;114514;-83
2021/06/29 09:31:45;;;;;;;3.13;2.13;;;;;;;31.80;52.53;100210.31;712497;1205;114821;-84
2021/06/29 09:46:48;;;;;;;2.67;2.10;;;;;;;31.51;51.68;100208.25;712645;1203;115108;-84
2021/06/29 10:02:04;;;;;;;4.17;2.53;;;;;;;32.01;51.42;100197.45;712637;1205;114228;-83
2021/06/29 10:17:10;;;;;;;11.20;3.50;;;;;;;32.61;50.53;100188.36;712952;1203;114932;-84
2021/06/29 10:32:13;;;;;;;3.70;3.20;;;;;;;32.74;51.26;100186.09;712946;1180;113961;-76
2021/06/29 10:47:23;;;;;;;3.08;2.70;;;;;;;33.49;51.15;100185.54;712592;1190;114236;-81
2021/06/29 11:03:09;;;;;;;4.20;3.18;;;;;;;33.32;49.73;100177.07;714182;1203;113681;-83
2021/06/29 11:18:13;;;;;;;3.50;2.80;;;;;;;34.18;49.93;100187.05;714739;1203;114551;-82
2021/06/29 11:33:30;;;;;;;3.43;2.93;;;;;;;33.72;49.18;100160.51;713645;1205;114596;-82
2021/06/29 11:48:44;;;;;;;5.00;4.20;;;;;;;34.46;49.43;100143.61;716016;1203;114660;-81
2021/06/29 12:03:47;;;;;;;4.20;3.43;;;;;;;35.40;48.85;100135.33;714004;1205;115109;-76
2021/06/29 12:18:54;;;;;;;3.65;3.30;;;;;;;34.10;48.10;100122.42;713811;1203;114444;-76
2021/06/29 12:33:57;;;;;;;5.77;3.90;;;;;;;34.50;48.07;100106.53;713915;1207;113689;-72
2021/06/29 12:49:16;;;;;;;4.80;3.18;;;;;;;35.26;47.97;100078.86;714792;1180;114998;-73
2021/06/29 13:04:21;;;;;;;4.90;3.23;;;;;;;36.22;47.19;100061.66;713656;1203;115004;-74
2021/06/29 13:19:23;;;;;;;;;;;;;;;36.17;45.76;100032.55;713515;1203;113799;-75
2021/06/29 13:34:29;;;;;;;4.50;2.90;;;;;;;36.47;45.25;100030.94;713900;1203;101395;-76
2021/06/29 13:49:31;;;;;;;3.20;2.90;;;;;;;35.94;43.80;100010.78;716176;1203;114701;-76
2021/06/29 14:04:53;;;;;;;5.30;4.03;;;;;;;36.94;43.69;100002.31;713517;1203;114934;-76
2021/06/29 14:19:55;;;;;;;4.70;3.43;;;;;;;36.68;42.58;99983.94;713397;1206;114347;-76
2021/06/29 14:34:57;;;;;;;3.05;2.60;;;;;;;36.49;43.70;99978.73;717031;1184;113790;-77
2021/06/29 14:50:03;;;;;;;4.37;2.67;;;;;;;36.07;43.86;99950.95;720418;1206;114082;-76
2021/06/29 15:05:08;;;;;;;4.15;3.10;;;;;;;35.62;44.52;99925.38;713839;1203;113480;-76
2021/06/29 15:20:13;;;;;;;6.50;3.10;;;;;;;35.32;44.72;99919.55;714978;1203;114092;-75
2021/06/29 15:35:16;;;;;;;3.20;2.87;;;;;;;34.16;45.23;99895.41;713563;1206;113746;-75
2021/06/29 15:50:19;;;;;;;3.00;2.07;;;;;;;33.60;45.87;99899.95;713656;1205;114071;-72
2021/06/29 16:05:21;;;;;;;2.87;2.27;;;;;;;33.29;46.03;99889.61;713468;1207;113936;-73
2021/06/29 16:20:24;;;;;;;3.30;2.20;;;;;;;32.61;45.63;99876.19;713567;1182;113658;-73
2021/06/29 16:35:26;;;;;;;2.27;2.07;;;;;;;32.48;45.95;99874.99;713391;1204;114395;-74
2021/06/29 16:50:28;;;;;;;2.43;2.00;;;;;;;32.34;46.27;99880.31;713509;1203;114573;-73
2021/06/29 17:05:31;;;;;;;4.00;2.80;;;;;;;32.01;46.79;99874.71;713670;1203;114948;-76
2021/06/29 17:20:33;;;;;;;3.83;3.37;;;;;;;31.47;48.59;99871.17;714055;1203;113736;-75
2021/06/29 17:35:36;;;;;;;8.55;2.78;;;;;;;31.13;50.19;99873.89;713690;1184;113767;-75
2021/06/29 17:50:38;;;;;;;5.18;2.50;;;;;;;30.43;51.08;99862.08;713268;1203;115525;-72
2021/06/29 18:05:40;;;;;;;6.55;3.25;;;;;;;29.91;52.58;99864.18;713403;1180;113612;-70
2021/06/29 18:20:43;;;;;;;5.87;3.60;;;;;;;29.20;53.94;99858.52;713753;1203;114322;-70
2021/06/29 18:35:45;;;;;;;8.30;4.08;;;;;;;28.36;55.27;99861.31;713297;1181;115027;-71
2021/06/29 18:50:47;;;;;;;6.90;4.23;;;;;;;28.00;55.75;99879.97;713398;1180;114211;-76
2021/06/29 19:05:53;;;;;;;6.73;3.77;;;;;;;27.32;56.52;99882.41;714082;1205;113688;-74
2021/06/29 19:20:55;;;;;;;6.68;3.45;;;;;;;26.67;58.27;99890.36;713717;1203;114916;-71
2021/06/29 19:35:58;;;;;;;12.97;5.03;;;;;;;26.33;59.73;99895.87;714756;1203;114350;-74
2021/06/29 19:51:00;;;;;;;5.97;4.43;;;;;;;25.69;61.32;99902.47;712863;1205;115648;-75
2021/06/29 20:06:03;;;;;;;8.23;4.07;;;;;;;25.10;63.57;99890.18;712620;1203;114048;-74
2021/06/29 20:21:10;;;;;;;8.77;4.97;;;;;;;25.03;63.48;99882.28;712814;1206;114373;-73
2021/06/29 20:36:13;;;;;;;9.05;5.60;;;;;;;24.90;62.78;99883.41;712633;1180;113702;-74
2021/06/29 20:51:15;;;;;;;6.60;3.90;;;;;;;24.30;64.13;99876.56;714287;1205;115113;-73
2021/06/29 21:06:17;;;;;;;5.77;3.47;;;;;;;24.08;64.48;99866.47;713318;1205;116529;-73
2021/06/29 21:21:20;;;;;;;6.13;3.83;;;;;;;24.05;64.28;99853.53;713170;1204;115069;-74
2021/06/29 21:36:27;;;;;;;10.85;7.55;;;;;;;23.81;65.52;99863.42;712904;1206;114087;-72
2021/06/29 21:51:34;;;;;;;7.70;5.20;;;;;;;23.60;67.30;99852.23;713469;1205;114791;-72
2021/06/29 22:06:42;;;;;;;16.23;7.55;;;;;;;23.35;68.07;99856.98;713117;1203;114706;-71
2021/06/29 22:21:49;;;;;;;9.50;5.40;;;;;;;22.96;69.15;99837.77;712913;1204;114240;-73
2021/06/29 22:36:57;;;;;;;19.00;9.20;;;;;;;22.49;71.98;99827.70;713130;1205;113843;-73
2021/06/29 22:52:04;;;;;;;9.10;4.40;;;;;;;22.09;71.13;99810.26;713146;1203;115135;-71
2021/06/29 23:07:11;;;;;;;4.98;4.28;;;;;;;21.89;71.50;99786.45;712715;1205;114523;-72
2021/06/29 23:22:18;;;;;;;8.10;4.30;;;;;;;21.77;71.95;99787.20;712876;1205;114996;-72
2021/06/29 23:37:25;;;;;;;20.70;11.40;;;;;;;21.74;73.85;99771.61;712859;1209;114224;-72
2021/06/29 23:52:34;;;;;;;16.30;8.67;;;;;;;21.55;76.42;99752.11;712837;1203;114355;-73
